Paul R Tregurtha — WYR4481 — position and weather

sailwx.info

Track history (hours):
 
Tides and Currents Weather Stations Pressure Air Temp Water Temp Dewpoint Dewpoint Depression Visibility Wind Speed Wind Dir Waves Ship Positions

Paul R Tregurtha

Owner: THE INTERLAKE STEAMSHIP COMPANY, Middleburg Heights, OH. More information available from US FCC via Universal Licensing System and Coast Guard Vessel Documentation Center.

Last reported at 2015-Jul-06 06:33 UTC. Time now 2015-Jul-06 07:02 UTC.
Position N 46°27' W 084°32'.

Length 308 m; draft 7 m.

Type: Cargo ship. MMSI: 366904940.

Date/timePositionNaut miles runAvg speedWind from/ knotsBaromVisibWave heightAir tempDewpointWater temp
2015-Jul-06 06:33N 46°27' W 084°32'610.8
2015-Jul-06 06:00N 46°30' W 084°24'4 2.1 060 / 61015.2 16.6 15.1
2015-Jul-06 04:00N 46°30' W 084°18'7 7.3 080 / 51015.4 16.0 14.6
2015-Jul-06 03:00N 46°24' W 084°12'7 7.3 080 / 41015.7 17.4 14.7
2015-Jul-06 02:00N 46°18' W 084°06'1510.7 130 / 41016.4 19.5 15.2
2015-Jul-06 00:33N 46°03' W 083°59'5 8.3
2015-Jul-06 00:00N 46°00' W 083°54'4213.9 120 / 141016.7 19.7 16.6
2015-Jul-05 21:00N 45°24' W 083°24'1514.7 160 / 151018.4 17.6 14.9
2015-Jul-05 20:00N 45°12' W 083°12'6412.7 150 / 131019.1 19.5 16.6
2015-Jul-05 15:00N 44°12' W 082°42'3115.6 100 / 31020.1 16.5 16.5
2015-Jul-05 13:00N 43°42' W 082°30'1212.0 180 / 61019.4 17.4 17.2
2015-Jul-05 12:00N 43°30' W 082°30'1312.8 210 / 61019.1 18.0 17.8
2015-Jul-05 11:00N 43°18' W 082°24'1212.0 210 / 81019.1 17.8 17.4
2015-Jul-05 10:00N 43°06' W 082°24'6 6.0 190 / 91018.8 17.6 17.8
2015-Jul-05 09:00N 43°00' W 082°24'1312.8 210 / 61018.8 17.5 17.4
2015-Jul-05 08:00N 42°48' W 082°30'0 0.0 210 / 51018.8 17.4 17.9
2015-Jul-05 07:00N 42°48' W 082°30'0 0.0 240 / 41018.8 18.2 19.3
2015-Jul-05 05:00N 42°48' W 082°30'0 0.0 240 / 41018.4 19.2 19.1
2015-Jul-05 04:00N 42°48' W 082°30'0 0.0 260 / 61018.1 20.5 19.2
2015-Jul-05 03:00N 42°48' W 082°30'0 0.0 250 / 51017.4 20.7 19.3
2015-Jul-05 02:00N 42°48' W 082°30'0 0.0 260 / 41016.7 21.2 19.1
2015-Jul-05 01:00N 42°48' W 082°30'0 0.0 190 / 21016.0 21.5 19.1
2015-Jul-05 00:00N 42°48' W 082°30'0 0.0 250 / 71016.0 24.4 19.1
2015-Jul-04 23:00N 42°48' W 082°30'0 0.0 250 / 91016.0 26.3 19.1
2015-Jul-04 22:00N 42°48' W 082°30'0 0.0 250 / 81016.4 26.6 19.1
2015-Jul-04 21:00N 42°48' W 082°30'0 0.0 250 / 81016.4 26.6 19.1
2015-Jul-04 20:00N 42°48' W 082°30'0 0.0 230 / 41016.4 27.2 18.8
2015-Jul-04 19:00N 42°48' W 082°30'0 0.0 100 / 11016.4 26.1 18.9
2015-Jul-04 18:00N 42°48' W 082°30'0 0.0 070 / 41016.4 22.8 18.7
2015-Jul-04 16:00N 42°48' W 082°30'1312.8 040 / 41016.4 21.2 17.5
2015-Jul-04 15:00N 43°00' W 082°24'6 6.0 060 / 41016.0 19.9 17.2
2015-Jul-04 14:00N 43°06' W 082°24'1212.0 010 / 31015.7 15.9 16.4
2015-Jul-04 13:00N 43°18' W 082°24'1212.0 340 / 31015.4 16.1 15.5
2015-Jul-04 12:00N 43°30' W 082°24'1212.0 310 / 21015.0 15.0 14.7
2015-Jul-04 11:00N 43°42' W 082°24'1918.5 230 / 31014.3 14.9 14.2
2015-Jul-04 10:00N 44°00' W 082°30'6911.6 300 / 31013.7 15.5 13.7
2015-Jul-04 04:00N 45°06' W 083°00'1514.7 220 / 71013.0 15.2 14.3
2015-Jul-04 03:00N 45°18' W 083°12'2313.8 020 / 101013.7 15.0 13.7
2015-Jul-04 01:17N 45°37' W 083°32'1012.4
2015-Jul-04 00:30N 45°44' W 083°41'612.3
2015-Jul-04 00:00N 45°48' W 083°48'614.2 300 / 91013.0 16.9 16.3
2015-Jul-03 23:33N 45°54' W 083°51'1110.8
2015-Jul-03 22:33N 46°03' W 083°58'3 5.1
2015-Jul-03 22:00N 46°06' W 084°00'714.8 250 / 141012.3 19.2 15.1
2015-Jul-03 21:31N 46°11' W 084°07'4 7.2
2015-Jul-03 21:00N 46°12' W 084°12'6 6.0 230 / 171012.0 18.7 13.2
2015-Jul-03 20:00N 46°18' W 084°12'7 7.3 200 / 101012.3 19.8 12.7
2015-Jul-03 19:00N 46°24' W 084°18'7 7.3 200 / 101012.0 20.9 12.2
2015-Jul-03 18:00N 46°30' W 084°24'0 0.0 220 / 61013.5 21.9 12.4
2015-Jul-03 17:00N 46°30' W 084°24'0 0.0 220 / 51013.2 22.8 12.2
2015-Jul-03 16:00N 46°30' W 084°24'2 1.0 250 / 71013.2 21.4 11.8
2015-Jul-03 14:16N 46°29' W 084°26'5 6.9
2015-Jul-03 13:33N 46°27' W 084°33'4 6.6
2015-Jul-03 13:00N 46°30' W 084°36'716.5 250 / 191013.2 17.4 13.4
2015-Jul-03 12:33N 46°35' W 084°43'813.4
2015-Jul-03 12:00N 46°42' W 084°48'510.7 230 / 221012.2 14.1 10.5
2015-Jul-03 11:33N 46°45' W 084°53'1211.5
2015-Jul-03 10:32N 46°53' W 085°06'9312.4
2015-Jul-03 03:00N 47°30' W 087°12'2512.5 150 / 91013.5 9.3 4.2
2015-Jul-03 01:00N 47°36' W 087°48'1212.1 150 / 71013.9 15.1 4.3
2015-Jul-03 00:00N 47°36' W 088°06'1212.1 220 / 111014.6 13.0 4.2
2015-Jul-02 23:00N 47°36' W 088°24'1413.5 210 / 91014.2 12.2 4.2
2015-Jul-02 22:00N 47°30' W 088°42'2512.5 200 / 51014.9 9.6 4.5
2015-Jul-02 20:00N 47°24' W 089°18'1616.2 220 / 111015.9 10.4 5.0
2015-Jul-02 19:00N 47°24' W 089°42'1010.1 190 / 81015.9 8.0 5.2
2015-Jul-02 18:00N 47°18' W 089°54'1212.2 190 / 71015.9 10.7 8.0
2015-Jul-02 17:00N 47°18' W 090°12'1212.2 180 / 31016.3 13.5 11.3
2015-Jul-02 16:00N 47°18' W 090°30'1413.6 230 / 81016.6 15.0 14.0
2015-Jul-02 15:00N 47°12' W 090°48'1014.4 230 / 91016.9 15.5 15.2
2015-Jul-02 14:17N 47°09' W 091°02'412.9
2015-Jul-02 14:00N 47°06' W 091°06'613.1 250 / 81017.3 13.9 14.5
2015-Jul-02 13:33N 47°05' W 091°14'814.5
2015-Jul-02 13:00N 47°00' W 091°24'1011.4 250 / 51017.6 13.7 14.4
2015-Jul-02 12:06N 46°56' W 091°38'435.5
2015-Jul-02 12:00N 46°54' W 091°42'3 7.6 250 / 41017.6 14.0 15.8
2015-Jul-02 11:33N 46°53' W 091°47'713.0
2015-Jul-02 11:00N 46°48' W 091°54'613.4 240 / 31017.6 14.6 17.4
2015-Jul-02 10:34N 46°48' W 092°03'2 4.2
2015-Jul-02 10:00N 46°48' W 092°06'3 7.5 140 / 11016.9 15.6 20.3
2015-Jul-02 09:33N 46°45' W 092°06'3 4.9
2015-Jul-02 09:00N 46°42' W 092°06'3 6.0 180 / 11016.9 15.7 21.7
2015-Jul-02 08:33N 46°45' W 092°07'3 4.7
2015-Jul-02 08:00N 46°42' W 092°06'3 5.0 050 / 31016.6 16.5 22.3
2015-Jul-02 07:28N 46°45' W 092°07'3 5.6
2015-Jul-02 07:00N 46°42' W 092°06'3 4.9 070 / 41016.6 16.0 22.1
2015-Jul-02 06:28N 46°45' W 092°07'3 5.6
2015-Jul-02 06:00N 46°42' W 092°06'3 5.5 070 / 81016.6 16.2 21.7
2015-Jul-02 05:31N 46°45' W 092°07'3 5.1
2015-Jul-02 05:00N 46°42' W 092°06'3 4.9 080 / 41016.9 16.9 22.0
2015-Jul-02 04:28N 46°45' W 092°07'3 5.6
2015-Jul-02 04:00N 46°42' W 092°06'3 3.6 030 / 51016.9 17.3 21.5
2015-Jul-02 03:16N 46°45' W 092°07'3 9.8
2015-Jul-02 03:00N 46°42' W 092°06'3 5.5 080 / 51016.6 17.2 20.5
2015-Jul-02 02:31N 46°45' W 092°07'0 0.0
2015-Jul-02 01:34N 46°45' W 092°07'3 4.7
2015-Jul-02 01:00N 46°42' W 092°06'3 3.6 160 / 81016.3 16.7 19.7
2015-Jul-02 00:16N 46°45' W 092°07'3 9.9
2015-Jul-02 00:00N 46°42' W 092°06'3 6.1 080 / 81015.9 17.3 19.7
2015-Jul-01 23:33N 46°45' W 092°07'3 6.1
2015-Jul-01 23:00N 46°48' W 092°06'4 9.5 330 / 81015.9 17.4 19.6
2015-Jul-01 22:33N 46°49' W 092°00'1413.9
2015-Jul-01 21:34N 46°53' W 091°41'813.3
2015-Jul-01 21:00N 46°54' W 091°30'1413.7 080 / 71016.3 18.1 14.8
2015-Jul-01 20:00N 47°00' W 091°12'1413.7 060 / 41016.6 17.2 14.0
2015-Jul-01 19:00N 47°06' W 090°54'1212.3 110 / 41017.3 16.7 14.7
2015-Jul-01 18:00N 47°06' W 090°36'1413.6 150 / 81017.6 14.1 13.9
2015-Jul-01 17:00N 47°12' W 090°18'1616.3 170 / 61017.6 11.2 11.0
2015-Jul-01 16:00N 47°12' W 089°54'5012.6 150 / 61017.6 8.7 4.8
2015-Jul-01 12:00N 47°24' W 088°42'2914.5 190 / 41016.9 6.6 4.1
2015-Jul-01 10:00N 47°30' W 088°00'1212.2 250 / 71015.6 6.5 4.4
2015-Jul-01 09:00N 47°30' W 087°42'1413.6 290 / 121014.9 5.9 4.9
2015-Jul-01 08:00N 47°24' W 087°24'1413.6 340 / 121014.2 5.1 4.1
2015-Jul-01 07:00N 47°18' W 087°06'9513.5 350 / 111014.2 4.2 4.1
2015-Jul-01 00:00N 46°48' W 084°54'1312.7 280 / 151010.8 7.7 9.6
2015-Jun-30 23:00N 46°36' W 084°48'1416.0 070 / 51010.8 9.5 12.0
2015-Jun-30 22:05N 46°27' W 084°32'332.7
2015-Jun-30 22:00N 46°24' W 084°30'18 4.4 320 / 131010.2 9.6 11.7
2015-Jun-30 18:00N 46°18' W 084°06'6 6.0 050 / 71009.3 21.2 13.8
2015-Jun-30 17:00N 46°12' W 084°06'914.4 120 / 121009.3 21.4 15.7
2015-Jun-30 16:21N 46°04' W 083°60'4212.5
2015-Jun-30 13:00N 45°30' W 083°24'2713.6 140 / 41010.3 15.9 12.1
2015-Jun-30 11:00N 45°06' W 083°06'11813.1 190 / 101010.3 15.8 13.8
2015-Jun-30 02:00N 43°12' W 082°24'1212.0 160 / 51011.6 18.3 16.9
2015-Jun-30 01:00N 43°00' W 082°24'1312.8 170 / 81011.3 20.6 17.0
2015-Jun-30 00:00N 42°48' W 082°30'19 9.3 170 / 61011.3 20.3 17.1
2015-Jun-29 22:00N 42°30' W 082°36'2110.7 170 / 61011.8 19.4 17.7
2015-Jun-29 20:00N 42°18' W 083°00'7 7.5 210 / 121012.1 21.3 20.0
2015-Jun-29 19:00N 42°12' W 083°06'6 6.0 170 / 141012.8 22.8 19.7
2015-Jun-29 18:00N 42°06' W 083°06'1212.0 190 / 111013.0 21.4 19.8
2015-Jun-29 17:00N 41°54' W 083°06'9 8.9 210 / 121012.7 19.5 20.2
2015-Jun-29 16:00N 41°54' W 083°18'0 0.0 210 / 101012.7 19.8 19.6
2015-Jun-29 15:00N 41°54' W 083°18'0 0.0 290 / 11012.7 20.5 18.6
2015-Jun-29 14:00N 41°54' W 083°18'0 0.0 190 / 11012.4 20.8 18.4
2015-Jun-29 13:00N 41°54' W 083°18'0 0.0 340 / 11012.4 20.0 18.4
2015-Jun-29 12:00N 41°54' W 083°18'0 0.0 310 / 11012.0 20.1 18.3
2015-Jun-29 11:00N 41°54' W 083°18'0 0.0 280 / 11011.7 19.4 18.3
2015-Jun-29 10:00N 41°54' W 083°18'0 0.0 020 / 11011.7 19.2 18.4
2015-Jun-29 09:00N 41°54' W 083°18'0 0.0 190 / 11011.7 19.7 18.4
2015-Jun-29 08:00N 41°54' W 083°18'0 0.0 350 / 11011.7 19.1 18.5
2015-Jun-29 06:00N 41°54' W 083°18'20 6.7 210 / 31012.4 19.6 19.5
2015-Jun-29 03:00N 42°12' W 083°06'7 7.5 180 / 51012.1 19.5 19.5
2015-Jun-29 02:00N 42°18' W 083°00'1110.7 100 / 51012.1 19.4 19.4
2015-Jun-29 01:00N 42°24' W 082°48'1110.7 120 / 101012.1 18.9 18.5
2015-Jun-29 00:00N 42°30' W 082°36'19 6.2 070 / 81012.1 19.9 17.0
2015-Jun-28 21:00N 42°48' W 082°30'0 0.0 150 / 111011.3 19.2 18.8
2015-Jun-28 20:00N 42°48' W 082°30'0 0.0 060 / 31012.0 20.5 18.6
2015-Jun-28 19:00N 42°48' W 082°30'0 0.0 070 / 51011.6 18.9 18.3
2015-Jun-28 18:00N 42°48' W 082°30'0 0.0 080 / 61011.3 18.3 18.0
2015-Jun-28 16:00N 42°48' W 082°30'0 0.0 050 / 71011.3 16.9 17.8
2015-Jun-28 15:00N 42°48' W 082°30'0 0.0 270 / 51011.0 15.3 17.8
2015-Jun-28 14:00N 42°48' W 082°30'6 6.0 340 / 191010.3 15.0 16.6
2015-Jun-28 13:00N 42°54' W 082°30'7 7.4 360 / 141009.9 15.7 16.6
2015-Jun-28 12:00N 43°00' W 082°24'1212.0 360 / 141009.6 14.7 16.4
2015-Jun-28 11:00N 43°12' W 082°24'2412.0 340 / 181008.9 14.5 14.4
2015-Jun-28 09:00N 43°36' W 082°24'2412.2 030 / 201008.6 13.3 12.0
2015-Jun-28 07:00N 44°00' W 082°30'7111.8 020 / 201009.9 11.9 9.5
2015-Jun-28 01:00N 45°06' W 083°06'1312.7 070 / 131014.7 14.5 9.5
2015-Jun-28 00:00N 45°18' W 083°12'1514.7 080 / 101015.0 17.3 11.1
2015-Jun-27 23:00N 45°30' W 083°24'1010.3 130 / 41015.0 16.8 8.1
2015-Jun-27 22:00N 45°36' W 083°36'915.5 230 / 31015.4 17.3 9.0
2015-Jun-27 21:25N 45°44' W 083°40'1112.4
2015-Jun-27 20:33N 45°53' W 083°49'813.6
2015-Jun-27 20:00N 46°00' W 083°54'3 6.7 230 / 71016.4 17.7 14.6
2015-Jun-27 19:32N 46°03' W 083°56'4 7.8
2015-Jun-27 19:00N 46°06' W 084°00'710.5 150 / 81016.4 22.8 13.1
2015-Jun-27 18:19N 46°11' W 084°07'411.5
2015-Jun-27 18:00N 46°12' W 084°12'6 6.0 140 / 61016.7 23.2 11.4
2015-Jun-27 17:00N 46°18' W 084°12'6 6.0 310 / 31017.4 23.6 10.8
2015-Jun-27 16:00N 46°24' W 084°12'7 7.3 330 / 41018.1 23.7 10.7
2015-Jun-27 15:00N 46°30' W 084°18'2 3.1 280 / 41018.4 22.0 10.2
2015-Jun-27 14:16N 46°30' W 084°21'2 7.0
2015-Jun-27 14:00N 46°30' W 084°24'2 3.7 270 / 41019.3 19.4 10.2
2015-Jun-27 13:33N 46°30' W 084°22'2 2.9
2015-Jun-27 13:00N 46°30' W 084°24'2 3.7 270 / 31019.3 17.2 10.3
2015-Jun-27 12:33N 46°30' W 084°22'2 2.9
2015-Jun-27 12:00N 46°30' W 084°24'2 3.7 330 / 11019.3 15.8 10.3
2015-Jun-27 11:33N 46°30' W 084°22'2 2.9
2015-Jun-27 11:00N 46°30' W 084°24'1 2.8 270 / 21019.3 12.1 10.5
2015-Jun-27 10:33N 46°29' W 084°26'3 5.5
2015-Jun-27 10:00N 46°30' W 084°30'4 8.3 130 / 11019.3 10.5 9.7
2015-Jun-27 09:33N 46°29' W 084°35'1 2.6
2015-Jun-27 09:00N 46°30' W 084°36'510.1 1019.0 11.9 11.9
2015-Jun-27 08:32N 46°33' W 084°41'3 5.4
2015-Jun-27 08:00N 46°36' W 084°42'2 4.1 060 / 61019.3 11.9 12.0
2015-Jun-27 07:33N 46°36' W 084°45'8 7.8
2015-Jun-27 06:33N 46°43' W 084°51'610.1
2015-Jun-27 06:00N 46°48' W 084°54'1010.2 340 / 11020.0 11.0 8.2
2015-Jun-27 05:00N 46°54' W 085°06'10411.6 220 / 71019.6 7.8 5.2
2015-Jun-26 20:00N 47°30' W 087°30'1413.5 150 / 51020.7 7.3 4.4
2015-Jun-26 19:00N 47°36' W 087°48'1212.1 100 / 61020.7 9.0 4.4
2015-Jun-26 18:00N 47°36' W 088°06'1212.1 100 / 71020.7 7.4 4.2
2015-Jun-26 17:00N 47°36' W 088°24'1413.5 210 / 31021.0 4.6 4.2
2015-Jun-26 16:00N 47°30' W 088°42'1212.2 080 / 31021.3 6.0 4.4
2015-Jun-26 15:00N 47°30' W 089°00'1212.2 1021.3 5.3 4.6
2015-Jun-26 14:00N 47°30' W 089°18'2512.5 280 / 21021.3 5.0 4.8
2015-Jun-26 12:00N 47°24' W 089°54'3912.8 010 / 41020.7 4.4 5.1
2015-Jun-26 09:00N 47°12' W 090°48'2412.9 040 / 21019.0 10.1 12.6
2015-Jun-26 07:09N 47°03' W 091°20'423.4
2015-Jun-26 07:00N 47°00' W 091°24'   010 / 71019.0 8.3 11.3
Track history (hours):
 
Tides and Currents Weather Stations Pressure Air Temp Water Temp Dewpoint Dewpoint Depression Visibility Wind Speed Wind Dir Waves Ship Positions

Paul R Tregurtha

Owner: THE INTERLAKE STEAMSHIP COMPANY, Middleburg Heights, OH. More information available from US FCC via Universal Licensing System and Coast Guard Vessel Documentation Center.

Last reported at 2015-Jul-06 06:33 UTC. Time now 2015-Jul-06 07:02 UTC.
Position N 46°27' W 084°32'.

Length 308 m; draft 7 m.

Type: Cargo ship. MMSI: 366904940.

Date/timePositionNaut miles runAvg speedWind from/ knotsBaromVisibWave heightAir tempDewpointWater temp
2015-Jul-06 06:33N 46°27' W 084°32'610.8
2015-Jul-06 06:00N 46°30' W 084°24'4 2.1 060 / 61015.2 16.6 15.1
2015-Jul-06 04:00N 46°30' W 084°18'7 7.3 080 / 51015.4 16.0 14.6
2015-Jul-06 03:00N 46°24' W 084°12'7 7.3 080 / 41015.7 17.4 14.7
2015-Jul-06 02:00N 46°18' W 084°06'1510.7 130 / 41016.4 19.5 15.2
2015-Jul-06 00:33N 46°03' W 083°59'5 8.3
2015-Jul-06 00:00N 46°00' W 083°54'4213.9 120 / 141016.7 19.7 16.6
2015-Jul-05 21:00N 45°24' W 083°24'1514.7 160 / 151018.4 17.6 14.9
2015-Jul-05 20:00N 45°12' W 083°12'6412.7 150 / 131019.1 19.5 16.6
2015-Jul-05 15:00N 44°12' W 082°42'3115.6 100 / 31020.1 16.5 16.5
2015-Jul-05 13:00N 43°42' W 082°30'1212.0 180 / 61019.4 17.4 17.2
2015-Jul-05 12:00N 43°30' W 082°30'1312.8 210 / 61019.1 18.0 17.8
2015-Jul-05 11:00N 43°18' W 082°24'1212.0 210 / 81019.1 17.8 17.4
2015-Jul-05 10:00N 43°06' W 082°24'6 6.0 190 / 91018.8 17.6 17.8
2015-Jul-05 09:00N 43°00' W 082°24'1312.8 210 / 61018.8 17.5 17.4
2015-Jul-05 08:00N 42°48' W 082°30'0 0.0 210 / 51018.8 17.4 17.9
2015-Jul-05 07:00N 42°48' W 082°30'0 0.0 240 / 41018.8 18.2 19.3
2015-Jul-05 05:00N 42°48' W 082°30'0 0.0 240 / 41018.4 19.2 19.1
2015-Jul-05 04:00N 42°48' W 082°30'0 0.0 260 / 61018.1 20.5 19.2
2015-Jul-05 03:00N 42°48' W 082°30'0 0.0 250 / 51017.4 20.7 19.3
2015-Jul-05 02:00N 42°48' W 082°30'0 0.0 260 / 41016.7 21.2 19.1
2015-Jul-05 01:00N 42°48' W 082°30'0 0.0 190 / 21016.0 21.5 19.1
2015-Jul-05 00:00N 42°48' W 082°30'0 0.0 250 / 71016.0 24.4 19.1
2015-Jul-04 23:00N 42°48' W 082°30'0 0.0 250 / 91016.0 26.3 19.1
2015-Jul-04 22:00N 42°48' W 082°30'0 0.0 250 / 81016.4 26.6 19.1
2015-Jul-04 21:00N 42°48' W 082°30'0 0.0 250 / 81016.4 26.6 19.1
2015-Jul-04 20:00N 42°48' W 082°30'0 0.0 230 / 41016.4 27.2 18.8
2015-Jul-04 19:00N 42°48' W 082°30'0 0.0 100 / 11016.4 26.1 18.9
2015-Jul-04 18:00N 42°48' W 082°30'0 0.0 070 / 41016.4 22.8 18.7
2015-Jul-04 16:00N 42°48' W 082°30'1312.8 040 / 41016.4 21.2 17.5
2015-Jul-04 15:00N 43°00' W 082°24'6 6.0 060 / 41016.0 19.9 17.2
2015-Jul-04 14:00N 43°06' W 082°24'1212.0 010 / 31015.7 15.9 16.4
2015-Jul-04 13:00N 43°18' W 082°24'1212.0 340 / 31015.4 16.1 15.5
2015-Jul-04 12:00N 43°30' W 082°24'1212.0 310 / 21015.0 15.0 14.7
2015-Jul-04 11:00N 43°42' W 082°24'1918.5 230 / 31014.3 14.9 14.2
2015-Jul-04 10:00N 44°00' W 082°30'6911.6 300 / 31013.7 15.5 13.7
2015-Jul-04 04:00N 45°06' W 083°00'1514.7 220 / 71013.0 15.2 14.3
2015-Jul-04 03:00N 45°18' W 083°12'2313.8 020 / 101013.7 15.0 13.7
2015-Jul-04 01:17N 45°37' W 083°32'1012.4
2015-Jul-04 00:30N 45°44' W 083°41'612.3
2015-Jul-04 00:00N 45°48' W 083°48'614.2 300 / 91013.0 16.9 16.3
2015-Jul-03 23:33N 45°54' W 083°51'1110.8
2015-Jul-03 22:33N 46°03' W 083°58'3 5.1
2015-Jul-03 22:00N 46°06' W 084°00'714.8 250 / 141012.3 19.2 15.1
2015-Jul-03 21:31N 46°11' W 084°07'4 7.2
2015-Jul-03 21:00N 46°12' W 084°12'6 6.0 230 / 171012.0 18.7 13.2
2015-Jul-03 20:00N 46°18' W 084°12'7 7.3 200 / 101012.3 19.8 12.7
2015-Jul-03 19:00N 46°24' W 084°18'7 7.3 200 / 101012.0 20.9 12.2
2015-Jul-03 18:00N 46°30' W 084°24'0 0.0 220 / 61013.5 21.9 12.4
2015-Jul-03 17:00N 46°30' W 084°24'0 0.0 220 / 51013.2 22.8 12.2
2015-Jul-03 16:00N 46°30' W 084°24'2 1.0 250 / 71013.2 21.4 11.8
2015-Jul-03 14:16N 46°29' W 084°26'5 6.9
2015-Jul-03 13:33N 46°27' W 084°33'4 6.6
2015-Jul-03 13:00N 46°30' W 084°36'716.5 250 / 191013.2 17.4 13.4
2015-Jul-03 12:33N 46°35' W 084°43'813.4
2015-Jul-03 12:00N 46°42' W 084°48'510.7 230 / 221012.2 14.1 10.5
2015-Jul-03 11:33N 46°45' W 084°53'1211.5
2015-Jul-03 10:32N 46°53' W 085°06'9312.4
2015-Jul-03 03:00N 47°30' W 087°12'2512.5 150 / 91013.5 9.3 4.2
2015-Jul-03 01:00N 47°36' W 087°48'1212.1 150 / 71013.9 15.1 4.3
2015-Jul-03 00:00N 47°36' W 088°06'1212.1 220 / 111014.6 13.0 4.2
2015-Jul-02 23:00N 47°36' W 088°24'1413.5 210 / 91014.2 12.2 4.2
2015-Jul-02 22:00N 47°30' W 088°42'2512.5 200 / 51014.9 9.6 4.5
2015-Jul-02 20:00N 47°24' W 089°18'1616.2 220 / 111015.9 10.4 5.0
2015-Jul-02 19:00N 47°24' W 089°42'1010.1 190 / 81015.9 8.0 5.2
2015-Jul-02 18:00N 47°18' W 089°54'1212.2 190 / 71015.9 10.7 8.0
2015-Jul-02 17:00N 47°18' W 090°12'1212.2 180 / 31016.3 13.5 11.3
2015-Jul-02 16:00N 47°18' W 090°30'1413.6 230 / 81016.6 15.0 14.0
2015-Jul-02 15:00N 47°12' W 090°48'1014.4 230 / 91016.9 15.5 15.2
2015-Jul-02 14:17N 47°09' W 091°02'412.9
2015-Jul-02 14:00N 47°06' W 091°06'613.1 250 / 81017.3 13.9 14.5
2015-Jul-02 13:33N 47°05' W 091°14'814.5
2015-Jul-02 13:00N 47°00' W 091°24'1011.4 250 / 51017.6 13.7 14.4
2015-Jul-02 12:06N 46°56' W 091°38'435.5
2015-Jul-02 12:00N 46°54' W 091°42'3 7.6 250 / 41017.6 14.0 15.8
2015-Jul-02 11:33N 46°53' W 091°47'713.0
2015-Jul-02 11:00N 46°48' W 091°54'613.4 240 / 31017.6 14.6 17.4
2015-Jul-02 10:34N 46°48' W 092°03'2 4.2
2015-Jul-02 10:00N 46°48' W 092°06'3 7.5 140 / 11016.9 15.6 20.3
2015-Jul-02 09:33N 46°45' W 092°06'3 4.9
2015-Jul-02 09:00N 46°42' W 092°06'3 6.0 180 / 11016.9 15.7 21.7
2015-Jul-02 08:33N 46°45' W 092°07'3 4.7
2015-Jul-02 08:00N 46°42' W 092°06'3 5.0 050 / 31016.6 16.5 22.3
2015-Jul-02 07:28N 46°45' W 092°07'3 5.6
2015-Jul-02 07:00N 46°42' W 092°06'3 4.9 070 / 41016.6 16.0 22.1
2015-Jul-02 06:28N 46°45' W 092°07'3 5.6
2015-Jul-02 06:00N 46°42' W 092°06'3 5.5 070 / 81016.6 16.2 21.7
2015-Jul-02 05:31N 46°45' W 092°07'3 5.1
2015-Jul-02 05:00N 46°42' W 092°06'3 4.9 080 / 41016.9 16.9 22.0
2015-Jul-02 04:28N 46°45' W 092°07'3 5.6
2015-Jul-02 04:00N 46°42' W 092°06'3 3.6 030 / 51016.9 17.3 21.5
2015-Jul-02 03:16N 46°45' W 092°07'3 9.8
2015-Jul-02 03:00N 46°42' W 092°06'3 5.5 080 / 51016.6 17.2 20.5
2015-Jul-02 02:31N 46°45' W 092°07'0 0.0
2015-Jul-02 01:34N 46°45' W 092°07'3 4.7
2015-Jul-02 01:00N 46°42' W 092°06'3 3.6 160 / 81016.3 16.7 19.7
2015-Jul-02 00:16N 46°45' W 092°07'3 9.9
2015-Jul-02 00:00N 46°42' W 092°06'3 6.1 080 / 81015.9 17.3 19.7
2015-Jul-01 23:33N 46°45' W 092°07'3 6.1
2015-Jul-01 23:00N 46°48' W 092°06'4 9.5 330 / 81015.9 17.4 19.6
2015-Jul-01 22:33N 46°49' W 092°00'1413.9
2015-Jul-01 21:34N 46°53' W 091°41'813.3
2015-Jul-01 21:00N 46°54' W 091°30'1413.7 080 / 71016.3 18.1 14.8
2015-Jul-01 20:00N 47°00' W 091°12'1413.7 060 / 41016.6 17.2 14.0
2015-Jul-01 19:00N 47°06' W 090°54'1212.3 110 / 41017.3 16.7 14.7
2015-Jul-01 18:00N 47°06' W 090°36'1413.6 150 / 81017.6 14.1 13.9
2015-Jul-01 17:00N 47°12' W 090°18'1616.3 170 / 61017.6 11.2 11.0
2015-Jul-01 16:00N 47°12' W 089°54'5012.6 150 / 61017.6 8.7 4.8
2015-Jul-01 12:00N 47°24' W 088°42'2914.5 190 / 41016.9 6.6 4.1
2015-Jul-01 10:00N 47°30' W 088°00'1212.2 250 / 71015.6 6.5 4.4
2015-Jul-01 09:00N 47°30' W 087°42'1413.6 290 / 121014.9 5.9 4.9
2015-Jul-01 08:00N 47°24' W 087°24'1413.6 340 / 121014.2 5.1 4.1
2015-Jul-01 07:00N 47°18' W 087°06'9513.5 350 / 111014.2 4.2 4.1
2015-Jul-01 00:00N 46°48' W 084°54'1312.7 280 / 151010.8 7.7 9.6
2015-Jun-30 23:00N 46°36' W 084°48'1416.0 070 / 51010.8 9.5 12.0
2015-Jun-30 22:05N 46°27' W 084°32'332.7
2015-Jun-30 22:00N 46°24' W 084°30'18 4.4 320 / 131010.2 9.6 11.7
2015-Jun-30 18:00N 46°18' W 084°06'6 6.0 050 / 71009.3 21.2 13.8
2015-Jun-30 17:00N 46°12' W 084°06'914.4 120 / 121009.3 21.4 15.7
2015-Jun-30 16:21N 46°04' W 083°60'4212.5
2015-Jun-30 13:00N 45°30' W 083°24'2713.6 140 / 41010.3 15.9 12.1
2015-Jun-30 11:00N 45°06' W 083°06'11813.1 190 / 101010.3 15.8 13.8
2015-Jun-30 02:00N 43°12' W 082°24'1212.0 160 / 51011.6 18.3 16.9
2015-Jun-30 01:00N 43°00' W 082°24'1312.8 170 / 81011.3 20.6 17.0
2015-Jun-30 00:00N 42°48' W 082°30'19 9.3 170 / 61011.3 20.3 17.1
2015-Jun-29 22:00N 42°30' W 082°36'2110.7 170 / 61011.8 19.4 17.7
2015-Jun-29 20:00N 42°18' W 083°00'7 7.5 210 / 121012.1 21.3 20.0
2015-Jun-29 19:00N 42°12' W 083°06'6 6.0 170 / 141012.8 22.8 19.7
2015-Jun-29 18:00N 42°06' W 083°06'1212.0 190 / 111013.0 21.4 19.8
2015-Jun-29 17:00N 41°54' W 083°06'9 8.9 210 / 121012.7 19.5 20.2
2015-Jun-29 16:00N 41°54' W 083°18'0 0.0 210 / 101012.7 19.8 19.6
2015-Jun-29 15:00N 41°54' W 083°18'0 0.0 290 / 11012.7 20.5 18.6
2015-Jun-29 14:00N 41°54' W 083°18'0 0.0 190 / 11012.4 20.8 18.4
2015-Jun-29 13:00N 41°54' W 083°18'0 0.0 340 / 11012.4 20.0 18.4
2015-Jun-29 12:00N 41°54' W 083°18'0 0.0 310 / 11012.0 20.1 18.3
2015-Jun-29 11:00N 41°54' W 083°18'0 0.0 280 / 11011.7 19.4 18.3
2015-Jun-29 10:00N 41°54' W 083°18'0 0.0 020 / 11011.7 19.2 18.4
2015-Jun-29 09:00N 41°54' W 083°18'0 0.0 190 / 11011.7 19.7 18.4
2015-Jun-29 08:00N 41°54' W 083°18'0 0.0 350 / 11011.7 19.1 18.5
2015-Jun-29 06:00N 41°54' W 083°18'20 6.7 210 / 31012.4 19.6 19.5
2015-Jun-29 03:00N 42°12' W 083°06'7 7.5 180 / 51012.1 19.5 19.5
2015-Jun-29 02:00N 42°18' W 083°00'1110.7 100 / 51012.1 19.4 19.4
2015-Jun-29 01:00N 42°24' W 082°48'1110.7 120 / 101012.1 18.9 18.5
2015-Jun-29 00:00N 42°30' W 082°36'19 6.2 070 / 81012.1 19.9 17.0
2015-Jun-28 21:00N 42°48' W 082°30'0 0.0 150 / 111011.3 19.2 18.8
2015-Jun-28 20:00N 42°48' W 082°30'0 0.0 060 / 31012.0 20.5 18.6
2015-Jun-28 19:00N 42°48' W 082°30'0 0.0 070 / 51011.6 18.9 18.3
2015-Jun-28 18:00N 42°48' W 082°30'0 0.0 080 / 61011.3 18.3 18.0
2015-Jun-28 16:00N 42°48' W 082°30'0 0.0 050 / 71011.3 16.9 17.8
2015-Jun-28 15:00N 42°48' W 082°30'0 0.0 270 / 51011.0 15.3 17.8
2015-Jun-28 14:00N 42°48' W 082°30'6 6.0 340 / 191010.3 15.0 16.6
2015-Jun-28 13:00N 42°54' W 082°30'7 7.4 360 / 141009.9 15.7 16.6
2015-Jun-28 12:00N 43°00' W 082°24'1212.0 360 / 141009.6 14.7 16.4
2015-Jun-28 11:00N 43°12' W 082°24'2412.0 340 / 181008.9 14.5 14.4
2015-Jun-28 09:00N 43°36' W 082°24'2412.2 030 / 201008.6 13.3 12.0
2015-Jun-28 07:00N 44°00' W 082°30'7111.8 020 / 201009.9 11.9 9.5
2015-Jun-28 01:00N 45°06' W 083°06'1312.7 070 / 131014.7 14.5 9.5
2015-Jun-28 00:00N 45°18' W 083°12'1514.7 080 / 101015.0 17.3 11.1
2015-Jun-27 23:00N 45°30' W 083°24'1010.3 130 / 41015.0 16.8 8.1
2015-Jun-27 22:00N 45°36' W 083°36'915.5 230 / 31015.4 17.3 9.0
2015-Jun-27 21:25N 45°44' W 083°40'1112.4
2015-Jun-27 20:33N 45°53' W 083°49'813.6
2015-Jun-27 20:00N 46°00' W 083°54'3 6.7 230 / 71016.4 17.7 14.6
2015-Jun-27 19:32N 46°03' W 083°56'4 7.8
2015-Jun-27 19:00N 46°06' W 084°00'710.5 150 / 81016.4 22.8 13.1
2015-Jun-27 18:19N 46°11' W 084°07'411.5
2015-Jun-27 18:00N 46°12' W 084°12'6 6.0 140 / 61016.7 23.2 11.4
2015-Jun-27 17:00N 46°18' W 084°12'6 6.0 310 / 31017.4 23.6 10.8
2015-Jun-27 16:00N 46°24' W 084°12'7 7.3 330 / 41018.1 23.7 10.7
2015-Jun-27 15:00N 46°30' W 084°18'2 3.1 280 / 41018.4 22.0 10.2
2015-Jun-27 14:16N 46°30' W 084°21'2 7.0
2015-Jun-27 14:00N 46°30' W 084°24'2 3.7 270 / 41019.3 19.4 10.2
2015-Jun-27 13:33N 46°30' W 084°22'2 2.9
2015-Jun-27 13:00N 46°30' W 084°24'2 3.7 270 / 31019.3 17.2 10.3
2015-Jun-27 12:33N 46°30' W 084°22'2 2.9
2015-Jun-27 12:00N 46°30' W 084°24'2 3.7 330 / 11019.3 15.8 10.3
2015-Jun-27 11:33N 46°30' W 084°22'2 2.9
2015-Jun-27 11:00N 46°30' W 084°24'1 2.8 270 / 21019.3 12.1 10.5
2015-Jun-27 10:33N 46°29' W 084°26'3 5.5
2015-Jun-27 10:00N 46°30' W 084°30'4 8.3 130 / 11019.3 10.5 9.7
2015-Jun-27 09:33N 46°29' W 084°35'1 2.6
2015-Jun-27 09:00N 46°30' W 084°36'510.1 1019.0 11.9 11.9
2015-Jun-27 08:32N 46°33' W 084°41'3 5.4
2015-Jun-27 08:00N 46°36' W 084°42'2 4.1 060 / 61019.3 11.9 12.0
2015-Jun-27 07:33N 46°36' W 084°45'8 7.8
2015-Jun-27 06:33N 46°43' W 084°51'610.1
2015-Jun-27 06:00N 46°48' W 084°54'1010.2 340 / 11020.0 11.0 8.2
2015-Jun-27 05:00N 46°54' W 085°06'10411.6 220 / 71019.6 7.8 5.2
2015-Jun-26 20:00N 47°30' W 087°30'1413.5 150 / 51020.7 7.3 4.4
2015-Jun-26 19:00N 47°36' W 087°48'1212.1 100 / 61020.7 9.0 4.4
2015-Jun-26 18:00N 47°36' W 088°06'1212.1 100 / 71020.7 7.4 4.2
2015-Jun-26 17:00N 47°36' W 088°24'1413.5 210 / 31021.0 4.6 4.2
2015-Jun-26 16:00N 47°30' W 088°42'1212.2 080 / 31021.3 6.0 4.4
2015-Jun-26 15:00N 47°30' W 089°00'1212.2 1021.3 5.3 4.6
2015-Jun-26 14:00N 47°30' W 089°18'2512.5 280 / 21021.3 5.0 4.8
2015-Jun-26 12:00N 47°24' W 089°54'3912.8 010 / 41020.7 4.4 5.1
2015-Jun-26 09:00N 47°12' W 090°48'2412.9 040 / 21019.0 10.1 12.6
2015-Jun-26 07:09N 47°03' W 091°20'423.4
2015-Jun-26 07:00N 47°00' W 091°24'   010 / 71019.0 8.3 11.3

Dump ship's entire track history